ANZ050 NZAA-YSSY
Flight info
| Callsign | ANZ050 |
|---|---|
| Flight time | 3h 19m |
| Altitude | 38000 |
| Route | VELMO DCT 38S163E DCT PLUGA DCT RIKNI N774 MARLN |
| Aircraft | B77W/H-SDE1E2E3FGHIJ2J3J4J5M1RWXY/LB1D1 |
Departure
| Time | 2026-04-24 06:13 |
|---|---|
| Airport | Auckland International Airport (NZAA) |
Arrival
| Time | 2026-04-24 09:33 |
|---|---|
| Airport | Sydney Kingsford Smith International Airport (YSSY) |
| Time | Latitude | Longitude | Altitude | Speed | Heading |
|---|---|---|---|---|---|
| 2026-04-24 05:28 | -37.00525 | 174.77793 | 30 ft | 0 kts | 341° |
| 2026-04-24 06:04 | -37.00527 | 174.77794 | 30 ft | 2 kts | 341° |
| 2026-04-24 06:04 | -37.00541 | 174.77800 | 30 ft | 3 kts | 341° |
| 2026-04-24 06:04 | -37.00558 | 174.77807 | 30 ft | 3 kts | 341° |
| 2026-04-24 06:05 | -37.00575 | 174.77814 | 29 ft | 3 kts | 341° |
| 2026-04-24 06:05 | -37.00584 | 174.77818 | 30 ft | 0 kts | 326° |
| 2026-04-24 06:08 | -37.00572 | 174.77790 | 30 ft | 7 kts | 278° |
| 2026-04-24 06:08 | -37.00599 | 174.77742 | 30 ft | 7 kts | 223° |
| 2026-04-24 06:08 | -37.00647 | 174.77685 | 30 ft | 7 kts | 229° |
| 2026-04-24 06:08 | -37.00667 | 174.77651 | 30 ft | 7 kts | 237° |
| 2026-04-24 06:09 | -37.00690 | 174.77593 | 30 ft | 8 kts | 241° |
| 2026-04-24 06:09 | -37.00734 | 174.77557 | 30 ft | 8 kts | 190° |
| 2026-04-24 06:09 | -37.00787 | 174.77565 | 30 ft | 8 kts | 166° |
| 2026-04-24 06:09 | -37.00840 | 174.77585 | 30 ft | 8 kts | 162° |
| 2026-04-24 06:10 | -37.00893 | 174.77607 | 30 ft | 8 kts | 161° |
| 2026-04-24 06:10 | -37.00987 | 174.77647 | 30 ft | 20 kts | 161° |
| 2026-04-24 06:10 | -37.01074 | 174.77685 | 30 ft | 12 kts | 161° |
| 2026-04-24 06:11 | -37.01209 | 174.77743 | 30 ft | 16 kts | 161° |
| 2026-04-24 06:11 | -37.01288 | 174.77777 | 30 ft | 9 kts | 161° |
| 2026-04-24 06:11 | -37.01376 | 174.77805 | 30 ft | 14 kts | 163° |
| 2026-04-24 06:11 | -37.01404 | 174.77892 | 30 ft | 0 kts | 81° |
| 2026-04-24 06:12 | -37.01404 | 174.77894 | 30 ft | 0 kts | 76° |
| 2026-04-24 06:12 | -37.01403 | 174.77897 | 30 ft | 7 kts | 76° |
| 2026-04-24 06:12 | -37.01285 | 174.78332 | 30 ft | 96 kts | 71° |
| 2026-04-24 06:12 | -37.00984 | 174.79425 | 30 ft | 166 kts | 71° |
| 2026-04-24 06:13 | -37.00563 | 174.80955 | 314 ft | 196 kts | 72° |
| 2026-04-24 06:13 | -37.00104 | 174.82609 | 961 ft | 204 kts | 73° |
| 2026-04-24 06:13 | -36.99635 | 174.84296 | 1737 ft | 213 kts | 73° |
| 2026-04-24 06:13 | -36.99127 | 174.86139 | 2287 ft | 230 kts | 73° |
| 2026-04-24 06:14 | -36.98592 | 174.88056 | 3104 ft | 236 kts | 72° |
| 2026-04-24 06:14 | -36.98041 | 174.90016 | 3911 ft | 242 kts | 72° |
| 2026-04-24 06:14 | -36.97475 | 174.92024 | 4776 ft | 245 kts | 71° |
| 2026-04-24 06:14 | -36.96904 | 174.94046 | 5657 ft | 247 kts | 71° |
| 2026-04-24 06:15 | -36.96325 | 174.96094 | 6461 ft | 252 kts | 71° |
| 2026-04-24 06:15 | -36.95737 | 174.98170 | 7258 ft | 254 kts | 71° |
| 2026-04-24 06:15 | -36.95287 | 175.00300 | 7924 ft | 257 kts | 88° |
| 2026-04-24 06:15 | -36.95651 | 175.02483 | 8652 ft | 259 kts | 115° |
| 2026-04-24 06:16 | -36.96632 | 175.04329 | 9515 ft | 259 kts | 129° |
| 2026-04-24 06:16 | -36.98051 | 175.05743 | 9979 ft | 266 kts | 154° |
| 2026-04-24 06:16 | -36.99833 | 175.06454 | 10000 ft | 270 kts | 162° |
| 2026-04-24 06:16 | -37.01650 | 175.07083 | 10006 ft | 271 kts | 161° |
| 2026-04-24 06:17 | -37.03482 | 175.07665 | 9996 ft | 273 kts | 172° |
| 2026-04-24 06:17 | -37.05345 | 175.07304 | 10002 ft | 279 kts | 203° |
| 2026-04-24 06:17 | -37.06847 | 175.05745 | 10006 ft | 286 kts | 232° |
| 2026-04-24 06:17 | -37.07721 | 175.03509 | 10013 ft | 286 kts | 249° |
| 2026-04-24 06:18 | -37.08336 | 175.01110 | 10008 ft | 290 kts | 251° |
| 2026-04-24 06:18 | -37.08963 | 174.98728 | 10479 ft | 294 kts | 249° |
| 2026-04-24 06:18 | -37.09643 | 174.96302 | 11203 ft | 295 kts | 249° |
| 2026-04-24 06:18 | -37.10335 | 174.93858 | 12019 ft | 298 kts | 249° |
| 2026-04-24 06:19 | -37.11030 | 174.91389 | 12881 ft | 302 kts | 249° |
| 2026-04-24 06:19 | -37.11721 | 174.88915 | 13761 ft | 306 kts | 250° |
| 2026-04-24 06:19 | -37.12426 | 174.86378 | 14575 ft | 310 kts | 250° |
| 2026-04-24 06:19 | -37.13135 | 174.83811 | 15410 ft | 312 kts | 250° |
| 2026-04-24 06:20 | -37.13854 | 174.81220 | 16267 ft | 313 kts | 249° |
| 2026-04-24 06:20 | -37.14648 | 174.78703 | 17004 ft | 318 kts | 246° |
| 2026-04-24 06:20 | -37.15547 | 174.76121 | 17834 ft | 322 kts | 245° |
| 2026-04-24 06:20 | -37.16461 | 174.73547 | 18693 ft | 324 kts | 245° |
| 2026-04-24 06:21 | -37.17381 | 174.70947 | 19447 ft | 327 kts | 245° |
| 2026-04-24 06:21 | -37.18303 | 174.68316 | 20193 ft | 331 kts | 245° |
| 2026-04-24 06:21 | -37.19228 | 174.65653 | 20943 ft | 334 kts | 245° |
| 2026-04-24 06:21 | -37.20146 | 174.62998 | 21665 ft | 338 kts | 245° |
| 2026-04-24 06:22 | -37.21087 | 174.60264 | 22423 ft | 341 kts | 245° |
| 2026-04-24 06:22 | -37.22033 | 174.57511 | 23170 ft | 345 kts | 245° |
| 2026-04-24 06:22 | -37.22976 | 174.54760 | 23898 ft | 348 kts | 245° |
| 2026-04-24 06:22 | -37.23941 | 174.51943 | 24527 ft | 352 kts | 245° |
| 2026-04-24 06:23 | -37.24910 | 174.49114 | 25138 ft | 355 kts | 246° |
| 2026-04-24 06:23 | -37.25892 | 174.46245 | 25790 ft | 358 kts | 246° |
| 2026-04-24 06:23 | -37.26879 | 174.43357 | 26382 ft | 362 kts | 246° |
| 2026-04-24 06:23 | -37.27867 | 174.40434 | 27002 ft | 365 kts | 247° |
| 2026-04-24 06:24 | -37.28811 | 174.37455 | 27591 ft | 369 kts | 248° |
| 2026-04-24 06:24 | -37.29732 | 174.34421 | 28201 ft | 372 kts | 249° |
| 2026-04-24 06:24 | -37.30643 | 174.31374 | 28808 ft | 375 kts | 249° |
| 2026-04-24 06:24 | -37.31555 | 174.28313 | 29383 ft | 379 kts | 249° |
| 2026-04-24 06:25 | -37.32487 | 174.25192 | 29891 ft | 384 kts | 249° |
| 2026-04-24 06:25 | -37.33434 | 174.22032 | 30024 ft | 388 kts | 249° |
| 2026-04-24 06:25 | -37.34388 | 174.18851 | 30008 ft | 387 kts | 248° |
| 2026-04-24 06:26 | -37.36277 | 174.12568 | 30012 ft | 383 kts | 248° |
| 2026-04-24 06:26 | -37.38163 | 174.06311 | 30016 ft | 382 kts | 248° |
| 2026-04-24 06:27 | -37.40047 | 174.00056 | 30010 ft | 382 kts | 248° |
| 2026-04-24 06:27 | -37.41916 | 173.93832 | 30014 ft | 382 kts | 248° |
| 2026-04-24 06:28 | -37.43795 | 173.87554 | 30022 ft | 384 kts | 248° |
| 2026-04-24 06:28 | -37.45673 | 173.81264 | 30020 ft | 385 kts | 248° |
| 2026-04-24 06:29 | -37.47562 | 173.74927 | 30021 ft | 387 kts | 248° |
| 2026-04-24 06:29 | -37.49456 | 173.68557 | 30024 ft | 387 kts | 248° |
| 2026-04-24 06:30 | -37.51333 | 173.62229 | 30022 ft | 387 kts | 248° |
| 2026-04-24 06:30 | -37.53216 | 173.55868 | 30025 ft | 386 kts | 248° |
| 2026-04-24 06:31 | -37.55091 | 173.49512 | 30024 ft | 385 kts | 247° |
| 2026-04-24 06:31 | -37.56943 | 173.43216 | 30020 ft | 384 kts | 247° |
| 2026-04-24 06:32 | -37.58803 | 173.36891 | 30023 ft | 383 kts | 247° |
| 2026-04-24 06:32 | -37.60643 | 173.30620 | 30028 ft | 383 kts | 247° |
| 2026-04-24 06:33 | -37.62491 | 173.24306 | 30029 ft | 383 kts | 247° |
| 2026-04-24 06:33 | -37.64329 | 173.18011 | 30023 ft | 383 kts | 247° |
| 2026-04-24 06:34 | -37.66173 | 173.11675 | 30026 ft | 384 kts | 247° |
| 2026-04-24 06:34 | -37.68007 | 173.05361 | 30030 ft | 386 kts | 247° |
| 2026-04-24 06:35 | -37.69861 | 172.98964 | 30041 ft | 387 kts | 247° |
| 2026-04-24 06:35 | -37.71711 | 172.92566 | 30045 ft | 388 kts | 247° |
| 2026-04-24 06:36 | -37.73555 | 172.86176 | 30040 ft | 389 kts | 247° |
| 2026-04-24 06:36 | -37.75404 | 172.79742 | 30040 ft | 389 kts | 246° |
| 2026-04-24 06:37 | -37.77241 | 172.73343 | 30035 ft | 389 kts | 246° |
| 2026-04-24 06:37 | -37.79084 | 172.66909 | 30044 ft | 389 kts | 246° |
| 2026-04-24 06:38 | -37.80926 | 172.60466 | 30037 ft | 388 kts | 246° |
| 2026-04-24 06:38 | -37.82747 | 172.54080 | 30041 ft | 388 kts | 246° |
| 2026-04-24 06:39 | -37.84576 | 172.47646 | 30040 ft | 388 kts | 246° |
| 2026-04-24 06:39 | -37.86401 | 172.41210 | 30049 ft | 388 kts | 246° |
| 2026-04-24 06:40 | -37.88222 | 172.34771 | 30049 ft | 388 kts | 246° |
| 2026-04-24 06:40 | -37.90032 | 172.28364 | 30048 ft | 390 kts | 246° |
| 2026-04-24 06:41 | -37.91859 | 172.21880 | 30044 ft | 391 kts | 246° |
| 2026-04-24 06:41 | -37.93657 | 172.15478 | 30037 ft | 392 kts | 245° |
| 2026-04-24 06:42 | -37.95476 | 172.08977 | 30054 ft | 394 kts | 245° |
| 2026-04-24 06:42 | -37.97313 | 172.02408 | 30042 ft | 396 kts | 245° |
| 2026-04-24 06:43 | -37.99161 | 171.95778 | 30047 ft | 399 kts | 244° |
| 2026-04-24 06:43 | -38.01003 | 171.89160 | 30062 ft | 401 kts | 245° |
| 2026-04-24 06:44 | -38.02864 | 171.82456 | 30064 ft | 403 kts | 245° |
| 2026-04-24 06:44 | -38.04717 | 171.75761 | 30054 ft | 404 kts | 245° |
| 2026-04-24 06:45 | -38.06578 | 171.69016 | 30050 ft | 403 kts | 245° |
| 2026-04-24 06:45 | -38.08415 | 171.62336 | 30051 ft | 402 kts | 244° |
| 2026-04-24 06:46 | -38.10256 | 171.55627 | 30054 ft | 401 kts | 244° |
| 2026-04-24 06:46 | -38.12083 | 171.48960 | 30064 ft | 400 kts | 244° |
| 2026-04-24 06:47 | -38.13918 | 171.42250 | 30063 ft | 401 kts | 244° |
| 2026-04-24 06:47 | -38.15737 | 171.35579 | 30068 ft | 402 kts | 244° |
| 2026-04-24 06:48 | -38.17571 | 171.28831 | 30069 ft | 403 kts | 244° |
| 2026-04-24 06:48 | -38.19390 | 171.22115 | 30065 ft | 404 kts | 244° |
| 2026-04-24 06:49 | -38.21209 | 171.15387 | 30070 ft | 404 kts | 244° |
| 2026-04-24 06:49 | -38.23043 | 171.08589 | 30067 ft | 405 kts | 244° |
| 2026-04-24 06:50 | -38.24858 | 171.01840 | 30064 ft | 405 kts | 244° |
| 2026-04-24 06:50 | -38.26681 | 170.95045 | 30068 ft | 405 kts | 244° |
| 2026-04-24 06:50 | -38.27410 | 170.91542 | 30058 ft | 412 kts | 256° |
| 2026-04-24 06:51 | -38.27601 | 170.87917 | 30101 ft | 416 kts | 263° |
| 2026-04-24 06:51 | -38.27456 | 170.80515 | 30084 ft | 421 kts | 266° |
| 2026-04-24 06:52 | -38.27245 | 170.73033 | 30086 ft | 423 kts | 266° |
| 2026-04-24 06:52 | -38.27154 | 170.66791 | 30087 ft | 424 kts | 265° |
| 2026-04-24 06:53 | -38.27108 | 170.58048 | 30085 ft | 424 kts | 264° |
| 2026-04-24 06:53 | -38.27091 | 170.51792 | 30062 ft | 424 kts | 264° |
| 2026-04-24 06:54 | -38.27064 | 170.44316 | 30067 ft | 420 kts | 264° |
| 2026-04-24 06:54 | -38.27028 | 170.36909 | 30090 ft | 415 kts | 264° |
| 2026-04-24 06:55 | -38.26988 | 170.29636 | 30082 ft | 412 kts | 264° |
| 2026-04-24 06:55 | -38.26943 | 170.22326 | 30069 ft | 410 kts | 264° |
| 2026-04-24 06:56 | -38.26894 | 170.15098 | 30087 ft | 410 kts | 264° |
| 2026-04-24 06:56 | -38.26840 | 170.07815 | 30097 ft | 411 kts | 264° |
| 2026-04-24 06:57 | -38.26781 | 170.00554 | 30091 ft | 412 kts | 264° |
| 2026-04-24 06:57 | -38.26718 | 169.93249 | 30095 ft | 412 kts | 264° |
| 2026-04-24 06:58 | -38.26650 | 169.85947 | 30093 ft | 412 kts | 264° |
| 2026-04-24 06:58 | -38.26578 | 169.78671 | 30070 ft | 412 kts | 264° |
| 2026-04-24 06:59 | -38.26499 | 169.71379 | 30090 ft | 411 kts | 264° |
| 2026-04-24 06:59 | -38.26417 | 169.64152 | 30091 ft | 409 kts | 264° |
| 2026-04-24 07:00 | -38.26331 | 169.56926 | 30091 ft | 407 kts | 264° |
| 2026-04-24 07:00 | -38.26243 | 169.49761 | 30095 ft | 406 kts | 264° |
| 2026-04-24 07:01 | -38.26150 | 169.42551 | 30080 ft | 406 kts | 264° |
| 2026-04-24 07:01 | -38.26054 | 169.35404 | 30096 ft | 406 kts | 264° |
| 2026-04-24 07:02 | -38.25952 | 169.28208 | 30095 ft | 406 kts | 264° |
| 2026-04-24 07:02 | -38.25845 | 169.21052 | 30101 ft | 406 kts | 265° |
| 2026-04-24 07:03 | -38.25733 | 169.13846 | 30103 ft | 407 kts | 265° |
| 2026-04-24 07:03 | -38.25618 | 169.06672 | 30106 ft | 407 kts | 265° |
| 2026-04-24 07:04 | -38.25497 | 168.99445 | 30100 ft | 408 kts | 265° |
| 2026-04-24 07:04 | -38.25371 | 168.92226 | 30104 ft | 408 kts | 265° |
| 2026-04-24 07:05 | -38.25243 | 168.85055 | 30105 ft | 408 kts | 265° |
| 2026-04-24 07:05 | -38.25109 | 168.77821 | 30105 ft | 408 kts | 265° |
| 2026-04-24 07:06 | -38.24971 | 168.70643 | 30105 ft | 407 kts | 265° |
| 2026-04-24 07:06 | -38.24829 | 168.63462 | 30103 ft | 406 kts | 265° |
| 2026-04-24 07:07 | -38.24684 | 168.56273 | 30107 ft | 405 kts | 265° |
| 2026-04-24 07:07 | -38.24457 | 168.45543 | 30109 ft | 404 kts | 265° |
| 2026-04-24 07:08 | -38.24300 | 168.38435 | 30108 ft | 403 kts | 265° |
| 2026-04-24 07:08 | -38.24141 | 168.31279 | 30099 ft | 403 kts | 265° |
| 2026-04-24 07:09 | -38.23978 | 168.24185 | 30112 ft | 403 kts | 266° |
| 2026-04-24 07:09 | -38.23808 | 168.17052 | 30110 ft | 402 kts | 266° |
| 2026-04-24 07:10 | -38.23634 | 168.09948 | 30113 ft | 402 kts | 266° |
| 2026-04-24 07:10 | -38.23456 | 168.02823 | 30114 ft | 402 kts | 266° |
| 2026-04-24 07:11 | -38.23275 | 167.95729 | 30099 ft | 402 kts | 266° |
| 2026-04-24 07:11 | -38.23090 | 167.88615 | 30117 ft | 401 kts | 266° |
| 2026-04-24 07:12 | -38.22901 | 167.81554 | 30118 ft | 400 kts | 266° |
| 2026-04-24 07:12 | -38.22707 | 167.74496 | 30120 ft | 400 kts | 266° |
| 2026-04-24 07:13 | -38.22510 | 167.67418 | 30126 ft | 399 kts | 266° |
| 2026-04-24 07:13 | -38.22309 | 167.60388 | 30128 ft | 399 kts | 266° |
| 2026-04-24 07:14 | -38.22104 | 167.53346 | 30122 ft | 398 kts | 266° |
| 2026-04-24 07:14 | -38.21896 | 167.46343 | 30111 ft | 397 kts | 267° |
| 2026-04-24 07:15 | -38.21684 | 167.39321 | 30118 ft | 396 kts | 267° |
| 2026-04-24 07:15 | -38.21468 | 167.32340 | 30124 ft | 396 kts | 267° |
| 2026-04-24 07:16 | -38.21247 | 167.25323 | 30130 ft | 396 kts | 267° |
| 2026-04-24 07:16 | -38.21023 | 167.18360 | 30122 ft | 396 kts | 267° |
| 2026-04-24 07:17 | -38.20793 | 167.11354 | 30136 ft | 396 kts | 267° |
| 2026-04-24 07:17 | -38.20560 | 167.04341 | 30126 ft | 397 kts | 267° |
| 2026-04-24 07:18 | -38.20324 | 166.97358 | 30137 ft | 397 kts | 267° |
| 2026-04-24 07:18 | -38.20081 | 166.90324 | 30131 ft | 397 kts | 267° |
| 2026-04-24 07:19 | -38.19835 | 166.83305 | 30123 ft | 397 kts | 267° |
| 2026-04-24 07:19 | -38.19585 | 166.76319 | 30140 ft | 397 kts | 267° |
| 2026-04-24 07:20 | -38.19330 | 166.69294 | 30138 ft | 397 kts | 267° |
| 2026-04-24 07:20 | -38.19071 | 166.62271 | 30133 ft | 397 kts | 268° |
| 2026-04-24 07:21 | -38.18813 | 166.55394 | 30136 ft | 396 kts | 268° |
| 2026-04-24 07:21 | -38.18547 | 166.48377 | 30124 ft | 396 kts | 268° |
| 2026-04-24 07:22 | -38.18278 | 166.41414 | 30135 ft | 395 kts | 268° |
| 2026-04-24 07:22 | -38.18003 | 166.34429 | 30143 ft | 394 kts | 268° |
| 2026-04-24 07:23 | -38.17727 | 166.27500 | 30145 ft | 393 kts | 268° |
| 2026-04-24 07:23 | -38.17447 | 166.20592 | 30145 ft | 393 kts | 268° |
| 2026-04-24 07:24 | -38.17163 | 166.13648 | 30128 ft | 392 kts | 268° |
| 2026-04-24 07:24 | -38.16875 | 166.06716 | 30147 ft | 391 kts | 268° |
| 2026-04-24 07:25 | -38.16584 | 165.99843 | 30151 ft | 390 kts | 268° |
| 2026-04-24 07:25 | -38.16290 | 165.92961 | 30149 ft | 390 kts | 268° |
| 2026-04-24 07:26 | -38.15992 | 165.86108 | 30154 ft | 390 kts | 268° |
| 2026-04-24 07:26 | -38.15691 | 165.79252 | 30154 ft | 390 kts | 268° |
| 2026-04-24 07:27 | -38.15384 | 165.72359 | 30149 ft | 389 kts | 269° |
| 2026-04-24 07:27 | -38.15077 | 165.65545 | 30154 ft | 389 kts | 269° |
| 2026-04-24 07:28 | -38.14762 | 165.58667 | 30158 ft | 388 kts | 269° |
| 2026-04-24 07:28 | -38.14444 | 165.51810 | 30162 ft | 388 kts | 269° |
| 2026-04-24 07:29 | -38.14124 | 165.44990 | 30169 ft | 388 kts | 269° |
| 2026-04-24 07:29 | -38.13799 | 165.38127 | 30159 ft | 388 kts | 269° |
| 2026-04-24 07:30 | -38.13471 | 165.31319 | 30165 ft | 388 kts | 269° |
| 2026-04-24 07:30 | -38.13138 | 165.24462 | 30171 ft | 388 kts | 269° |
| 2026-04-24 07:31 | -38.12800 | 165.17601 | 30175 ft | 389 kts | 269° |
| 2026-04-24 07:31 | -38.12459 | 165.10740 | 30162 ft | 389 kts | 269° |
| 2026-04-24 07:32 | -38.12115 | 165.03919 | 30159 ft | 388 kts | 269° |
| 2026-04-24 07:32 | -38.11766 | 164.97060 | 30166 ft | 388 kts | 269° |
| 2026-04-24 07:33 | -38.11414 | 164.90251 | 30170 ft | 387 kts | 269° |
| 2026-04-24 07:33 | -38.11057 | 164.83420 | 30175 ft | 386 kts | 269° |
| 2026-04-24 07:34 | -38.10700 | 164.76643 | 30172 ft | 386 kts | 270° |
| 2026-04-24 07:34 | -38.10339 | 164.69865 | 30155 ft | 386 kts | 270° |
| 2026-04-24 07:35 | -38.09972 | 164.63051 | 30181 ft | 385 kts | 270° |
| 2026-04-24 07:35 | -38.09603 | 164.56276 | 30176 ft | 385 kts | 270° |
| 2026-04-24 07:36 | -38.09231 | 164.49506 | 30185 ft | 385 kts | 270° |
| 2026-04-24 07:36 | -38.08852 | 164.42700 | 30183 ft | 385 kts | 270° |
| 2026-04-24 07:37 | -38.08472 | 164.35939 | 30182 ft | 385 kts | 270° |
| 2026-04-24 07:37 | -38.08087 | 164.29167 | 30182 ft | 385 kts | 270° |
| 2026-04-24 07:38 | -38.07697 | 164.22361 | 30187 ft | 385 kts | 270° |
| 2026-04-24 07:38 | -38.07305 | 164.15600 | 30186 ft | 385 kts | 270° |
| 2026-04-24 07:39 | -38.06974 | 164.09952 | 30184 ft | 385 kts | 270° |
| 2026-04-24 07:39 | -38.06507 | 164.02051 | 30189 ft | 385 kts | 271° |
| 2026-04-24 07:40 | -38.06170 | 163.96400 | 30183 ft | 385 kts | 271° |
| 2026-04-24 07:40 | -38.05765 | 163.89648 | 30193 ft | 384 kts | 271° |
| 2026-04-24 07:41 | -38.05353 | 163.82877 | 30193 ft | 384 kts | 271° |
| 2026-04-24 07:41 | -38.04940 | 163.76144 | 30196 ft | 384 kts | 271° |
| 2026-04-24 07:42 | -38.04520 | 163.69363 | 30202 ft | 384 kts | 271° |
| 2026-04-24 07:42 | -38.04098 | 163.62616 | 30187 ft | 384 kts | 271° |
| 2026-04-24 07:43 | -38.03672 | 163.55856 | 30201 ft | 384 kts | 271° |
| 2026-04-24 07:43 | -38.03242 | 163.49096 | 30200 ft | 384 kts | 271° |
| 2026-04-24 07:44 | -38.02808 | 163.42355 | 30204 ft | 384 kts | 271° |
| 2026-04-24 07:44 | -38.02374 | 163.35647 | 30202 ft | 384 kts | 271° |
| 2026-04-24 07:45 | -38.01932 | 163.28885 | 30196 ft | 384 kts | 271° |
| 2026-04-24 07:45 | -38.01490 | 163.22173 | 30203 ft | 383 kts | 272° |
| 2026-04-24 07:46 | -38.01040 | 163.15422 | 30200 ft | 384 kts | 272° |
| 2026-04-24 07:46 | -38.00590 | 163.08706 | 30205 ft | 384 kts | 272° |
| 2026-04-24 07:47 | -38.00125 | 163.01951 | 30204 ft | 384 kts | 273° |
| 2026-04-24 07:47 | -37.99085 | 162.95303 | 30214 ft | 387 kts | 283° |
| 2026-04-24 07:48 | -37.97427 | 162.88789 | 30206 ft | 388 kts | 286° |
| 2026-04-24 07:48 | -37.95721 | 162.82334 | 30212 ft | 388 kts | 285° |
| 2026-04-24 07:49 | -37.94057 | 162.75822 | 30211 ft | 388 kts | 285° |
| 2026-04-24 07:49 | -37.92427 | 162.69297 | 30211 ft | 388 kts | 285° |
| 2026-04-24 07:50 | -37.90815 | 162.62802 | 30213 ft | 388 kts | 285° |
| 2026-04-24 07:50 | -37.89193 | 162.56270 | 30209 ft | 388 kts | 285° |
| 2026-04-24 07:51 | -37.87575 | 162.49778 | 30216 ft | 388 kts | 285° |
| 2026-04-24 07:51 | -37.85954 | 162.43299 | 30213 ft | 388 kts | 285° |
| 2026-04-24 07:52 | -37.84320 | 162.36783 | 30212 ft | 388 kts | 285° |
| 2026-04-24 07:52 | -37.82682 | 162.30268 | 30213 ft | 388 kts | 285° |
| 2026-04-24 07:53 | -37.81052 | 162.23804 | 30202 ft | 388 kts | 285° |
| 2026-04-24 07:53 | -37.79409 | 162.17303 | 30215 ft | 387 kts | 285° |
| 2026-04-24 07:54 | -37.77762 | 162.10801 | 30213 ft | 387 kts | 285° |
| 2026-04-24 07:54 | -37.76116 | 162.04324 | 30214 ft | 388 kts | 285° |
| 2026-04-24 07:55 | -37.74470 | 161.97866 | 30214 ft | 388 kts | 285° |
| 2026-04-24 07:55 | -37.72812 | 161.91374 | 30213 ft | 388 kts | 285° |
| 2026-04-24 07:56 | -37.71155 | 161.84903 | 30213 ft | 388 kts | 285° |
| 2026-04-24 07:56 | -37.69488 | 161.78410 | 30213 ft | 388 kts | 285° |
| 2026-04-24 07:57 | -37.67827 | 161.71958 | 30217 ft | 388 kts | 285° |
| 2026-04-24 07:57 | -37.66151 | 161.65462 | 30214 ft | 388 kts | 286° |
| 2026-04-24 07:58 | -37.64485 | 161.59022 | 30213 ft | 387 kts | 286° |
| 2026-04-24 07:58 | -37.62802 | 161.52534 | 30208 ft | 387 kts | 286° |
| 2026-04-24 07:59 | -37.61132 | 161.46112 | 30214 ft | 387 kts | 286° |
| 2026-04-24 07:59 | -37.59446 | 161.39647 | 30218 ft | 387 kts | 286° |
| 2026-04-24 08:00 | -37.57767 | 161.33226 | 30221 ft | 387 kts | 286° |
| 2026-04-24 08:00 | -37.56076 | 161.26772 | 30222 ft | 387 kts | 286° |
| 2026-04-24 08:01 | -37.54385 | 161.20333 | 30215 ft | 388 kts | 286° |
| 2026-04-24 08:01 | -37.52685 | 161.13877 | 30223 ft | 388 kts | 286° |
| 2026-04-24 08:02 | -37.50988 | 161.07449 | 30221 ft | 388 kts | 286° |
| 2026-04-24 08:02 | -37.49290 | 161.01036 | 30224 ft | 388 kts | 286° |
| 2026-04-24 08:03 | -37.47576 | 160.94578 | 30223 ft | 388 kts | 286° |
| 2026-04-24 08:03 | -37.45866 | 160.88151 | 30224 ft | 388 kts | 286° |
| 2026-04-24 08:04 | -37.44156 | 160.81737 | 30221 ft | 387 kts | 287° |
| 2026-04-24 08:04 | -37.42435 | 160.75300 | 30224 ft | 387 kts | 287° |
| 2026-04-24 08:05 | -37.40708 | 160.68856 | 30227 ft | 387 kts | 287° |
| 2026-04-24 08:05 | -37.38986 | 160.62446 | 30217 ft | 388 kts | 287° |
| 2026-04-24 08:06 | -37.37263 | 160.56050 | 30228 ft | 388 kts | 287° |
| 2026-04-24 08:06 | -37.35527 | 160.49621 | 30228 ft | 388 kts | 287° |
| 2026-04-24 08:07 | -37.33788 | 160.43196 | 30229 ft | 388 kts | 287° |
| 2026-04-24 08:07 | -37.32052 | 160.36799 | 30230 ft | 388 kts | 287° |
| 2026-04-24 08:08 | -37.30303 | 160.30370 | 30229 ft | 388 kts | 287° |
| 2026-04-24 08:09 | -37.27687 | 160.20778 | 30229 ft | 388 kts | 287° |
| 2026-04-24 08:09 | -37.25926 | 160.14345 | 30230 ft | 388 kts | 287° |
| 2026-04-24 08:10 | -37.24173 | 160.07954 | 30226 ft | 388 kts | 287° |
| 2026-04-24 08:10 | -37.22410 | 160.01544 | 30231 ft | 388 kts | 287° |
| 2026-04-24 08:11 | -37.20652 | 159.95166 | 30232 ft | 388 kts | 287° |
| 2026-04-24 08:11 | -37.18886 | 159.88777 | 30233 ft | 388 kts | 287° |
| 2026-04-24 08:12 | -37.17108 | 159.82360 | 30226 ft | 388 kts | 287° |
| 2026-04-24 08:12 | -37.15341 | 159.75999 | 30230 ft | 388 kts | 287° |
| 2026-04-24 08:13 | -37.13558 | 159.69593 | 30230 ft | 388 kts | 287° |
| 2026-04-24 08:13 | -37.11781 | 159.63222 | 30230 ft | 388 kts | 287° |
| 2026-04-24 08:14 | -37.09989 | 159.56811 | 30229 ft | 388 kts | 287° |
| 2026-04-24 08:14 | -37.08208 | 159.50459 | 30224 ft | 388 kts | 287° |
| 2026-04-24 08:15 | -37.06411 | 159.44064 | 30233 ft | 388 kts | 287° |
| 2026-04-24 08:15 | -37.04620 | 159.37707 | 30234 ft | 388 kts | 288° |
| 2026-04-24 08:16 | -37.02816 | 159.31315 | 30231 ft | 388 kts | 288° |
| 2026-04-24 08:16 | -37.01020 | 159.24971 | 30229 ft | 387 kts | 288° |
| 2026-04-24 08:17 | -36.99224 | 159.18641 | 30224 ft | 387 kts | 288° |
| 2026-04-24 08:17 | -36.97419 | 159.12290 | 30233 ft | 386 kts | 288° |
| 2026-04-24 08:18 | -36.95620 | 159.05980 | 30231 ft | 386 kts | 288° |
| 2026-04-24 08:18 | -36.93820 | 158.99677 | 30232 ft | 386 kts | 288° |
| 2026-04-24 08:19 | -36.92045 | 158.93478 | 30233 ft | 386 kts | 288° |
| 2026-04-24 08:19 | -36.90226 | 158.87139 | 30232 ft | 386 kts | 288° |
| 2026-04-24 08:20 | -36.88414 | 158.80842 | 30231 ft | 387 kts | 288° |
| 2026-04-24 08:20 | -36.86587 | 158.74504 | 30232 ft | 387 kts | 288° |
| 2026-04-24 08:21 | -36.84769 | 158.68213 | 30232 ft | 387 kts | 288° |
| 2026-04-24 08:21 | -36.82936 | 158.61887 | 30233 ft | 387 kts | 288° |
| 2026-04-24 08:22 | -36.81098 | 158.55559 | 30236 ft | 387 kts | 288° |
| 2026-04-24 08:22 | -36.79253 | 158.49219 | 30234 ft | 387 kts | 288° |
| 2026-04-24 08:23 | -36.77421 | 158.42934 | 30269 ft | 387 kts | 288° |
| 2026-04-24 08:23 | -36.75881 | 158.37666 | 30200 ft | 388 kts | 288° |
| 2026-04-24 08:24 | -36.73727 | 158.30310 | 30207 ft | 387 kts | 288° |
| 2026-04-24 08:24 | -36.72189 | 158.25072 | 30208 ft | 387 kts | 288° |
| 2026-04-24 08:25 | -36.70335 | 158.18773 | 30503 ft | 391 kts | 288° |
| 2026-04-24 08:25 | -36.69077 | 158.14501 | 31260 ft | 394 kts | 288° |
| 2026-04-24 08:25 | -36.68449 | 158.12373 | 31620 ft | 395 kts | 288° |
| 2026-04-24 08:25 | -36.67493 | 158.09135 | 32139 ft | 398 kts | 288° |
| 2026-04-24 08:26 | -36.66533 | 158.05889 | 32588 ft | 402 kts | 289° |
| 2026-04-24 08:26 | -36.65560 | 158.02602 | 32982 ft | 406 kts | 289° |
| 2026-04-24 08:26 | -36.64577 | 157.99285 | 33446 ft | 409 kts | 289° |
| 2026-04-24 08:26 | -36.63600 | 157.95993 | 33893 ft | 411 kts | 289° |
| 2026-04-24 08:27 | -36.62599 | 157.92624 | 34303 ft | 415 kts | 289° |
| 2026-04-24 08:27 | -36.61588 | 157.89225 | 34465 ft | 423 kts | 289° |
| 2026-04-24 08:27 | -36.60571 | 157.85811 | 34489 ft | 423 kts | 289° |
| 2026-04-24 08:28 | -36.58531 | 157.78980 | 34521 ft | 418 kts | 289° |
| 2026-04-24 08:28 | -36.56501 | 157.72202 | 34526 ft | 416 kts | 289° |
| 2026-04-24 08:29 | -36.54487 | 157.65486 | 34530 ft | 416 kts | 289° |
| 2026-04-24 08:29 | -36.52458 | 157.58733 | 34530 ft | 416 kts | 289° |
| 2026-04-24 08:30 | -36.50436 | 157.52021 | 34525 ft | 417 kts | 289° |
| 2026-04-24 08:30 | -36.48380 | 157.45215 | 34528 ft | 419 kts | 289° |
| 2026-04-24 08:31 | -36.46324 | 157.38421 | 34527 ft | 420 kts | 289° |
| 2026-04-24 08:31 | -36.44268 | 157.31647 | 34527 ft | 421 kts | 289° |
| 2026-04-24 08:32 | -36.42199 | 157.24846 | 34521 ft | 422 kts | 289° |
| 2026-04-24 08:32 | -36.40120 | 157.18032 | 34531 ft | 421 kts | 289° |
| 2026-04-24 08:33 | -36.38038 | 157.11221 | 34513 ft | 420 kts | 289° |
| 2026-04-24 08:33 | -36.35975 | 157.04488 | 34514 ft | 418 kts | 289° |
| 2026-04-24 08:34 | -36.33903 | 156.97744 | 34526 ft | 416 kts | 289° |
| 2026-04-24 08:34 | -36.31848 | 156.91069 | 34522 ft | 415 kts | 289° |
| 2026-04-24 08:35 | -36.29780 | 156.84367 | 34513 ft | 415 kts | 289° |
| 2026-04-24 08:35 | -36.27711 | 156.77675 | 34518 ft | 416 kts | 289° |
| 2026-04-24 08:36 | -36.25654 | 156.71039 | 34528 ft | 416 kts | 289° |
| 2026-04-24 08:36 | -36.23566 | 156.64319 | 34524 ft | 418 kts | 289° |
| 2026-04-24 08:37 | -36.21468 | 156.57582 | 34523 ft | 419 kts | 290° |
| 2026-04-24 08:37 | -36.19365 | 156.50848 | 34522 ft | 419 kts | 289° |
| 2026-04-24 08:38 | -36.17267 | 156.44142 | 34514 ft | 420 kts | 290° |
| 2026-04-24 08:38 | -36.15149 | 156.37389 | 34523 ft | 420 kts | 290° |
| 2026-04-24 08:39 | -36.13029 | 156.30650 | 34506 ft | 420 kts | 290° |
| 2026-04-24 08:39 | -36.10912 | 156.23936 | 34502 ft | 420 kts | 290° |
| 2026-04-24 08:40 | -36.08790 | 156.17215 | 34512 ft | 419 kts | 290° |
| 2026-04-24 08:40 | -36.06668 | 156.10508 | 34517 ft | 419 kts | 290° |
| 2026-04-24 08:41 | -36.04541 | 156.03804 | 34518 ft | 419 kts | 290° |
| 2026-04-24 08:41 | -36.02412 | 155.97107 | 34518 ft | 419 kts | 290° |
| 2026-04-24 08:42 | -36.00282 | 155.90426 | 34511 ft | 419 kts | 290° |
| 2026-04-24 08:42 | -35.98137 | 155.83711 | 34519 ft | 419 kts | 290° |
| 2026-04-24 08:43 | -35.95990 | 155.77005 | 34518 ft | 420 kts | 290° |
| 2026-04-24 08:43 | -35.93843 | 155.70316 | 34516 ft | 421 kts | 290° |
| 2026-04-24 08:44 | -35.91677 | 155.63582 | 34515 ft | 421 kts | 290° |
| 2026-04-24 08:44 | -35.89521 | 155.56894 | 34507 ft | 422 kts | 290° |
| 2026-04-24 08:45 | -35.87342 | 155.50152 | 34517 ft | 422 kts | 290° |
| 2026-04-24 08:45 | -35.85163 | 155.43422 | 34515 ft | 423 kts | 290° |
| 2026-04-24 08:46 | -35.82985 | 155.36713 | 34512 ft | 423 kts | 290° |
| 2026-04-24 08:46 | -35.80787 | 155.29958 | 34516 ft | 423 kts | 290° |
| 2026-04-24 08:47 | -35.78603 | 155.23260 | 34515 ft | 423 kts | 290° |
| 2026-04-24 08:47 | -35.76398 | 155.16511 | 34511 ft | 423 kts | 290° |
| 2026-04-24 08:48 | -35.74194 | 155.09782 | 34509 ft | 423 kts | 290° |
| 2026-04-24 08:48 | -35.72003 | 155.03108 | 34513 ft | 422 kts | 290° |
| 2026-04-24 08:49 | -35.69797 | 154.96402 | 34508 ft | 422 kts | 290° |
| 2026-04-24 08:49 | -35.67586 | 154.89695 | 34510 ft | 422 kts | 290° |
| 2026-04-24 08:50 | -35.65383 | 154.83027 | 34504 ft | 422 kts | 290° |
| 2026-04-24 08:50 | -35.63163 | 154.76321 | 34508 ft | 423 kts | 290° |
| 2026-04-24 08:51 | -35.60752 | 154.69795 | 34507 ft | 421 kts | 299° |
| 2026-04-24 08:51 | -35.57332 | 154.63932 | 34511 ft | 423 kts | 310° |
| 2026-04-24 08:52 | -35.53414 | 154.58534 | 34511 ft | 426 kts | 310° |
| 2026-04-24 08:52 | -35.49518 | 154.53006 | 34515 ft | 428 kts | 309° |
| 2026-04-24 08:53 | -35.45657 | 154.47431 | 34513 ft | 430 kts | 309° |
| 2026-04-24 08:53 | -35.41786 | 154.41866 | 34506 ft | 430 kts | 309° |
| 2026-04-24 08:54 | -35.37873 | 154.36282 | 34503 ft | 429 kts | 310° |
| 2026-04-24 08:54 | -35.33997 | 154.30773 | 34503 ft | 429 kts | 310° |
| 2026-04-24 08:55 | -35.30084 | 154.25227 | 34509 ft | 428 kts | 310° |
| 2026-04-24 08:55 | -35.26187 | 154.19710 | 34502 ft | 427 kts | 310° |
| 2026-04-24 08:56 | -35.22317 | 154.14238 | 34501 ft | 427 kts | 310° |
| 2026-04-24 08:56 | -35.18447 | 154.08774 | 34500 ft | 426 kts | 310° |
| 2026-04-24 08:57 | -35.14556 | 154.03288 | 34496 ft | 426 kts | 310° |
| 2026-04-24 08:57 | -35.10667 | 153.97814 | 34500 ft | 426 kts | 310° |
| 2026-04-24 08:58 | -35.06790 | 153.92366 | 34496 ft | 427 kts | 310° |
| 2026-04-24 08:58 | -35.02860 | 153.86852 | 34044 ft | 434 kts | 310° |
| 2026-04-24 08:58 | -35.00882 | 153.84081 | 33500 ft | 432 kts | 310° |
| 2026-04-24 08:59 | -34.98906 | 153.81316 | 32981 ft | 428 kts | 310° |
| 2026-04-24 08:59 | -34.96984 | 153.78627 | 32472 ft | 424 kts | 310° |
| 2026-04-24 08:59 | -34.95046 | 153.75918 | 31906 ft | 423 kts | 310° |
| 2026-04-24 08:59 | -34.93108 | 153.73212 | 31311 ft | 424 kts | 310° |
| 2026-04-24 09:00 | -34.91168 | 153.70504 | 30829 ft | 423 kts | 310° |
| 2026-04-24 09:00 | -34.89226 | 153.67795 | 30308 ft | 422 kts | 310° |
| 2026-04-24 09:00 | -34.87316 | 153.65134 | 29764 ft | 420 kts | 310° |
| 2026-04-24 09:00 | -34.85395 | 153.62457 | 29213 ft | 419 kts | 310° |
| 2026-04-24 09:01 | -34.83472 | 153.59781 | 28675 ft | 418 kts | 310° |
| 2026-04-24 09:01 | -34.81558 | 153.57120 | 28153 ft | 416 kts | 310° |
| 2026-04-24 09:01 | -34.79654 | 153.54475 | 27630 ft | 415 kts | 310° |
| 2026-04-24 09:01 | -34.77777 | 153.51867 | 27121 ft | 414 kts | 310° |
| 2026-04-24 09:02 | -34.75880 | 153.49235 | 26626 ft | 412 kts | 310° |
| 2026-04-24 09:02 | -34.73983 | 153.46606 | 26124 ft | 412 kts | 310° |
| 2026-04-24 09:02 | -34.72091 | 153.43984 | 25617 ft | 411 kts | 310° |
| 2026-04-24 09:02 | -34.70207 | 153.41377 | 25151 ft | 409 kts | 310° |
| 2026-04-24 09:03 | -34.68347 | 153.38805 | 24692 ft | 408 kts | 310° |
| 2026-04-24 09:03 | -34.66485 | 153.36231 | 24230 ft | 407 kts | 310° |
| 2026-04-24 09:03 | -34.64612 | 153.33644 | 23707 ft | 406 kts | 311° |
| 2026-04-24 09:03 | -34.62748 | 153.31070 | 23177 ft | 405 kts | 311° |
| 2026-04-24 09:04 | -34.60888 | 153.28502 | 22666 ft | 403 kts | 311° |
| 2026-04-24 09:04 | -34.59031 | 153.25942 | 22142 ft | 402 kts | 311° |
| 2026-04-24 09:04 | -34.57190 | 153.23405 | 21646 ft | 400 kts | 311° |
| 2026-04-24 09:04 | -34.55364 | 153.20893 | 21154 ft | 399 kts | 311° |
| 2026-04-24 09:05 | -34.53524 | 153.18363 | 20656 ft | 397 kts | 311° |
| 2026-04-24 09:05 | -34.51698 | 153.15854 | 20187 ft | 396 kts | 311° |
| 2026-04-24 09:05 | -34.49875 | 153.13352 | 19716 ft | 394 kts | 311° |
| 2026-04-24 09:05 | -34.48091 | 153.10903 | 19260 ft | 392 kts | 311° |
| 2026-04-24 09:06 | -34.46275 | 153.08412 | 18789 ft | 390 kts | 312° |
| 2026-04-24 09:06 | -34.44479 | 153.05951 | 18273 ft | 388 kts | 312° |
| 2026-04-24 09:06 | -34.42685 | 153.03495 | 17735 ft | 387 kts | 312° |
| 2026-04-24 09:06 | -34.40927 | 153.01091 | 17216 ft | 385 kts | 312° |
| 2026-04-24 09:07 | -34.39147 | 152.98659 | 16722 ft | 383 kts | 312° |
| 2026-04-24 09:07 | -34.37384 | 152.96251 | 16229 ft | 381 kts | 312° |
| 2026-04-24 09:07 | -34.34468 | 152.92271 | 15421 ft | 378 kts | 311° |
| 2026-04-24 09:08 | -34.32720 | 152.89887 | 14942 ft | 377 kts | 311° |
| 2026-04-24 09:08 | -34.30985 | 152.87521 | 14466 ft | 375 kts | 311° |
| 2026-04-24 09:08 | -34.28692 | 152.84396 | 13781 ft | 373 kts | 312° |
| 2026-04-24 09:08 | -34.26983 | 152.82068 | 13523 ft | 364 kts | 312° |
| 2026-04-24 09:09 | -34.25327 | 152.79811 | 13475 ft | 350 kts | 312° |
| 2026-04-24 09:09 | -34.24276 | 152.78381 | 13467 ft | 340 kts | 312° |
| 2026-04-24 09:09 | -34.22738 | 152.76290 | 13461 ft | 325 kts | 312° |
| 2026-04-24 09:09 | -34.21264 | 152.74287 | 13456 ft | 311 kts | 312° |
| 2026-04-24 09:10 | -34.19835 | 152.72348 | 13483 ft | 309 kts | 312° |
| 2026-04-24 09:10 | -34.18399 | 152.70402 | 13490 ft | 311 kts | 312° |
| 2026-04-24 09:10 | -34.16979 | 152.68479 | 13477 ft | 309 kts | 312° |
| 2026-04-24 09:10 | -34.15548 | 152.66540 | 13474 ft | 308 kts | 312° |
| 2026-04-24 09:11 | -34.14122 | 152.64609 | 13479 ft | 307 kts | 312° |
| 2026-04-24 09:11 | -34.12701 | 152.62685 | 13476 ft | 306 kts | 312° |
| 2026-04-24 09:11 | -34.11303 | 152.60795 | 13473 ft | 305 kts | 312° |
| 2026-04-24 09:11 | -34.09886 | 152.58879 | 13475 ft | 304 kts | 312° |
| 2026-04-24 09:12 | -34.08622 | 152.56871 | 13468 ft | 300 kts | 299° |
| 2026-04-24 09:12 | -34.07916 | 152.54549 | 13469 ft | 307 kts | 278° |
| 2026-04-24 09:12 | -34.07682 | 152.52007 | 13497 ft | 310 kts | 273° |
| 2026-04-24 09:12 | -34.07537 | 152.49416 | 13483 ft | 309 kts | 273° |
| 2026-04-24 09:13 | -34.07365 | 152.46831 | 13476 ft | 307 kts | 275° |
| 2026-04-24 09:13 | -34.07130 | 152.44268 | 13484 ft | 306 kts | 276° |
| 2026-04-24 09:13 | -34.06874 | 152.41719 | 13478 ft | 306 kts | 276° |
| 2026-04-24 09:13 | -34.06619 | 152.39198 | 13474 ft | 305 kts | 276° |
| 2026-04-24 09:14 | -34.06366 | 152.36660 | 13475 ft | 304 kts | 276° |
| 2026-04-24 09:14 | -34.06119 | 152.34124 | 13483 ft | 304 kts | 276° |
| 2026-04-24 09:14 | -34.05874 | 152.31580 | 13482 ft | 304 kts | 276° |
| 2026-04-24 09:14 | -34.05631 | 152.29037 | 13483 ft | 304 kts | 276° |
| 2026-04-24 09:15 | -34.05389 | 152.26495 | 13478 ft | 305 kts | 276° |
| 2026-04-24 09:15 | -34.05151 | 152.23983 | 13479 ft | 305 kts | 276° |
| 2026-04-24 09:15 | -34.04908 | 152.21432 | 13484 ft | 306 kts | 276° |
| 2026-04-24 09:15 | -34.04666 | 152.18885 | 13483 ft | 306 kts | 276° |
| 2026-04-24 09:16 | -34.04422 | 152.16322 | 13480 ft | 307 kts | 276° |
| 2026-04-24 09:16 | -34.04178 | 152.13759 | 13482 ft | 307 kts | 276° |
| 2026-04-24 09:16 | -34.03935 | 152.11226 | 13482 ft | 307 kts | 276° |
| 2026-04-24 09:16 | -34.03688 | 152.08656 | 13483 ft | 307 kts | 276° |
| 2026-04-24 09:17 | -34.03441 | 152.06093 | 13469 ft | 307 kts | 276° |
| 2026-04-24 09:17 | -34.03186 | 152.03537 | 13370 ft | 309 kts | 276° |
| 2026-04-24 09:17 | -34.02920 | 152.00926 | 12907 ft | 316 kts | 276° |
| 2026-04-24 09:17 | -34.02651 | 151.98282 | 12412 ft | 320 kts | 276° |
| 2026-04-24 09:18 | -34.02377 | 151.95600 | 11915 ft | 323 kts | 277° |
| 2026-04-24 09:18 | -34.02104 | 151.92930 | 11452 ft | 326 kts | 277° |
| 2026-04-24 09:18 | -34.01826 | 151.90204 | 10967 ft | 328 kts | 277° |
| 2026-04-24 09:18 | -34.01545 | 151.87463 | 10508 ft | 331 kts | 277° |
| 2026-04-24 09:19 | -34.01260 | 151.84684 | 10004 ft | 333 kts | 277° |
| 2026-04-24 09:19 | -34.00978 | 151.81943 | 9492 ft | 334 kts | 277° |
| 2026-04-24 09:19 | -34.00691 | 151.79157 | 9008 ft | 335 kts | 277° |
| 2026-04-24 09:19 | -34.00402 | 151.76358 | 8612 ft | 333 kts | 277° |
| 2026-04-24 09:20 | -34.00120 | 151.73615 | 8428 ft | 324 kts | 277° |
| 2026-04-24 09:20 | -33.99761 | 151.70130 | 8406 ft | 304 kts | 277° |
| 2026-04-24 09:20 | -33.99591 | 151.68483 | 8444 ft | 293 kts | 277° |
| 2026-04-24 09:20 | -33.99348 | 151.66089 | 8502 ft | 286 kts | 277° |
| 2026-04-24 09:21 | -33.99102 | 151.63683 | 8547 ft | 290 kts | 277° |
| 2026-04-24 09:21 | -33.98855 | 151.61285 | 8527 ft | 285 kts | 277° |
| 2026-04-24 09:21 | -33.98610 | 151.58929 | 8515 ft | 281 kts | 277° |
| 2026-04-24 09:21 | -33.98370 | 151.56618 | 8512 ft | 282 kts | 277° |
| 2026-04-24 09:22 | -33.98122 | 151.54250 | 8523 ft | 284 kts | 277° |
| 2026-04-24 09:22 | -33.97795 | 151.51922 | 8494 ft | 280 kts | 291° |
| 2026-04-24 09:22 | -33.96769 | 151.49968 | 8537 ft | 276 kts | 317° |
| 2026-04-24 09:22 | -33.95318 | 151.48478 | 8537 ft | 277 kts | 323° |
| 2026-04-24 09:23 | -33.93788 | 151.47040 | 8533 ft | 280 kts | 324° |
| 2026-04-24 09:23 | -33.92252 | 151.45571 | 8437 ft | 281 kts | 323° |
| 2026-04-24 09:23 | -33.90728 | 151.44055 | 8082 ft | 285 kts | 322° |
| 2026-04-24 09:23 | -33.89215 | 151.42539 | 7732 ft | 286 kts | 322° |
| 2026-04-24 09:24 | -33.87686 | 151.40997 | 7378 ft | 287 kts | 322° |
| 2026-04-24 09:24 | -33.86152 | 151.39442 | 7016 ft | 287 kts | 322° |
| 2026-04-24 09:24 | -33.84645 | 151.37912 | 6657 ft | 286 kts | 322° |
| 2026-04-24 09:24 | -33.83122 | 151.36362 | 6276 ft | 286 kts | 322° |
| 2026-04-24 09:25 | -33.81601 | 151.34810 | 5900 ft | 286 kts | 321° |
| 2026-04-24 09:25 | -33.80083 | 151.33265 | 5532 ft | 285 kts | 322° |
| 2026-04-24 09:25 | -33.78584 | 151.31743 | 5161 ft | 285 kts | 322° |
| 2026-04-24 09:25 | -33.77072 | 151.30214 | 4788 ft | 284 kts | 322° |
| 2026-04-24 09:26 | -33.75565 | 151.28690 | 4513 ft | 279 kts | 321° |
| 2026-04-24 09:26 | -33.74116 | 151.27227 | 4507 ft | 265 kts | 321° |
| 2026-04-24 09:26 | -33.72715 | 151.25808 | 4506 ft | 263 kts | 321° |
| 2026-04-24 09:26 | -33.71333 | 151.24407 | 4489 ft | 254 kts | 321° |
| 2026-04-24 09:27 | -33.70257 | 151.22849 | 4504 ft | 244 kts | 294° |
| 2026-04-24 09:27 | -33.69986 | 151.20854 | 4496 ft | 242 kts | 265° |
| 2026-04-24 09:27 | -33.70209 | 151.18876 | 4508 ft | 243 kts | 261° |
| 2026-04-24 09:27 | -33.70469 | 151.16842 | 4487 ft | 247 kts | 261° |
| 2026-04-24 09:28 | -33.70911 | 151.14854 | 4239 ft | 248 kts | 241° |
| 2026-04-24 09:28 | -33.72049 | 151.13366 | 3999 ft | 241 kts | 207° |
| 2026-04-24 09:28 | -33.73599 | 151.12852 | 3796 ft | 230 kts | 178° |
| 2026-04-24 09:28 | -33.75164 | 151.12943 | 3533 ft | 222 kts | 172° |
| 2026-04-24 09:29 | -33.76705 | 151.13123 | 3245 ft | 220 kts | 169° |
| 2026-04-24 09:29 | -33.78213 | 151.13419 | 2998 ft | 217 kts | 166° |
| 2026-04-24 09:29 | -33.79687 | 151.13786 | 2680 ft | 217 kts | 165° |
| 2026-04-24 09:29 | -33.81164 | 151.14168 | 2380 ft | 216 kts | 165° |
| 2026-04-24 09:30 | -33.82598 | 151.14536 | 2093 ft | 209 kts | 166° |
| 2026-04-24 09:30 | -33.83986 | 151.14888 | 1815 ft | 195 kts | 165° |
| 2026-04-24 09:30 | -33.85237 | 151.15208 | 1574 ft | 178 kts | 165° |
| 2026-04-24 09:30 | -33.86381 | 151.15500 | 1347 ft | 156 kts | 164° |
| 2026-04-24 09:31 | -33.87372 | 151.15753 | 1123 ft | 137 kts | 163° |
| 2026-04-24 09:31 | -33.88285 | 151.15988 | 962 ft | 134 kts | 163° |
| 2026-04-24 09:31 | -33.89188 | 151.16218 | 815 ft | 135 kts | 163° |
| 2026-04-24 09:31 | -33.90105 | 151.16452 | 638 ft | 131 kts | 165° |
| 2026-04-24 09:32 | -33.90968 | 151.16672 | 451 ft | 125 kts | 166° |
| 2026-04-24 09:32 | -33.91811 | 151.16897 | 238 ft | 125 kts | 168° |
| 2026-04-24 09:32 | -33.92683 | 151.17097 | 144 ft | 131 kts | 167° |
| 2026-04-24 09:32 | -33.93550 | 151.17324 | 22 ft | 96 kts | 167° |
| 2026-04-24 09:33 | -33.93758 | 151.17374 | 22 ft | 5 kts | 168° |
| 2026-04-24 09:33 | -33.93881 | 151.17398 | 25 ft | 22 kts | 184° |
| 2026-04-24 09:33 | -33.93941 | 151.17339 | 26 ft | 9 kts | 248° |
| 2026-04-24 09:33 | -33.93953 | 151.17297 | 27 ft | 0 kts | 252° |
| 2026-04-24 09:34 | -33.93954 | 151.17296 | 27 ft | 0 kts | 252° |
| 2026-04-24 09:35 | -33.93954 | 151.17295 | 27 ft | 0 kts | 252° |
| 2026-04-24 09:35 | -33.93931 | 151.17223 | 24 ft | 15 kts | 322° |
| 2026-04-24 09:35 | -33.93826 | 151.17185 | 21 ft | 17 kts | 347° |
| 2026-04-24 09:36 | -33.93717 | 151.17157 | 24 ft | 17 kts | 348° |
| 2026-04-24 09:36 | -33.93605 | 151.17129 | 28 ft | 17 kts | 348° |
| 2026-04-24 09:36 | -33.93561 | 151.17117 | 28 ft | 0 kts | 344° |
| 2026-04-24 09:36 | -33.93543 | 151.17111 | 28 ft | 10 kts | 342° |
| 2026-04-24 09:37 | -33.93504 | 151.17053 | 28 ft | 11 kts | 279° |
| 2026-04-24 09:37 | -33.93517 | 151.16958 | 28 ft | 12 kts | 255° |
| 2026-04-24 09:37 | -33.93578 | 151.16918 | 28 ft | 12 kts | 179° |
| 2026-04-24 09:37 | -33.93612 | 151.16919 | 28 ft | 0 kts | 178° |